Rysy — C6ZA3 — position and weather

sailwx.info

Track history (hours):
 
Tides and Currents Weather Stations Pressure Air Temp Water Temp Dewpoint Dewpoint Depression Visibility Wind Speed Wind Dir Waves Ship Positions

Rysy

Last reported at 2017-Feb-20 23:04 UTC. Time now 2017-Feb-28 14:43 UTC.
Position N 15°12' W 018°56'.

Length 229 m; draft 9.5 m.

Type: Cargo ship. MMSI: 311051200.

Date/timePositionNaut miles runAvg speedWind from/ knotsBaromVisibWave heightAir tempDewpointWater temp
2017-Feb-20 23:04N 15°12' W 018°56'  
2017-Feb-18 11:29N 27°47' W 013°54'1314.2
2017-Feb-18 10:33N 27°58' W 013°46'1414.3
2017-Feb-18 09:33N 28°09' W 013°36'1414.1
2017-Feb-18 08:33N 28°21' W 013°27'1414.0
2017-Feb-18 07:34N 28°32' W 013°18'1414.0
2017-Feb-18 06:33N 28°44' W 013°08'1414.3
2017-Feb-18 05:33N 28°55' W 012°59'1413.9
2017-Feb-18 04:33N 29°07' W 012°50'1414.2
2017-Feb-18 03:34N 29°18' W 012°40'1514.5
2017-Feb-18 02:33N 29°30' W 012°30'1414.4
2017-Feb-18 01:33N 29°42' W 012°21'1514.7
2017-Feb-18 00:33N 29°54' W 012°11'1514.6
2017-Feb-17 23:34N 30°06' W 012°02'1414.4
2017-Feb-17 22:33N 30°17' W 011°51'1514.6
2017-Feb-17 21:33N 30°29' W 011°41'1514.5
2017-Feb-17 20:31N 30°42' W 011°31'1414.7
2017-Feb-17 19:33N 30°53' W 011°22'1514.5
2017-Feb-17 18:33N 31°05' W 011°12'1414.6
2017-Feb-17 17:33N 31°17' W 011°02'1814.0
2017-Feb-17 16:15N 31°32' W 010°50'3914.2
2017-Feb-17 13:29N 32°03' W 010°23'1314.2
2017-Feb-17 12:34N 32°14' W 010°14'1414.0
2017-Feb-17 11:32N 32°26' W 010°04'1413.9
2017-Feb-17 10:31N 32°37' W 009°54'1414.0
2017-Feb-17 09:33N 32°48' W 009°44'1414.0
2017-Feb-17 08:32N 32°60' W 009°35'1413.8
2017-Feb-17 07:33N 33°09' W 009°23'1413.7
2017-Feb-17 06:31N 33°19' W 009°11'1313.5
2017-Feb-17 05:33N 33°28' W 008°60'1313.5
2017-Feb-17 04:33N 33°37' W 008°48'1413.5
2017-Feb-17 03:33N 33°46' W 008°36'18613.8
2017-Feb-16 14:05N 35°55' W 005°52'814.3
2017-Feb-16 13:33N 35°57' W 005°43'1413.8
2017-Feb-16 12:33N 35°59' W 005°27'1312.9
2017-Feb-16 11:33N 36°03' W 005°11'1211.4
2017-Feb-16 10:32N 36°05' W 004°57'41812.3
2017-Feb-15 00:28N 37°20' E 003°36'1212.1
2017-Feb-14 23:27N 37°21' E 003°51'47111.7
2017-Feb-13 07:07N 36°24' E 013°36'712.2
2017-Feb-13 06:33N 36°21' E 013°43'1212.3
2017-Feb-13 05:33N 36°17' E 013°57'1312.6
2017-Feb-13 04:33N 36°11' E 014°11'1212.4
2017-Feb-13 03:33N 36°05' E 014°25'1312.6
2017-Feb-13 02:33N 35°59' E 014°39'9 9.1
2017-Feb-13 01:33N 35°54' E 014°48'2 0.9
2017-Feb-12 23:22N 35°53' E 014°48'0 0.0
2017-Feb-12 22:07N 35°53' E 014°48'0 0.0
2017-Feb-12 18:25N 35°53' E 014°48'0 0.0
2017-Feb-12 17:31N 35°53' E 014°48'0 0.0
2017-Feb-12 16:28N 35°53' E 014°48'0 0.0
2017-Feb-12 14:28N 35°53' E 014°48'0 0.0
2017-Feb-12 13:31N 35°53' E 014°48'0 0.0
2017-Feb-12 12:25N 35°53' E 014°48'0 0.0
2017-Feb-12 11:31N 35°53' E 014°48'0 0.0
2017-Feb-12 10:28N 35°53' E 014°48'0 0.0
2017-Feb-12 09:31N 35°53' E 014°48'0 0.0
2017-Feb-12 08:31N 35°53' E 014°48'0 0.0
2017-Feb-12 07:31N 35°53' E 014°48'0 0.3
2017-Feb-12 06:33N 35°52' E 014°49'6 5.9
2017-Feb-12 05:32N 35°52' E 014°56'  
Track history (hours):
 
Tides and Currents Weather Stations Pressure Air Temp Water Temp Dewpoint Dewpoint Depression Visibility Wind Speed Wind Dir Waves Ship Positions

Rysy

Last reported at 2017-Feb-20 23:04 UTC. Time now 2017-Feb-28 14:43 UTC.
Position N 15°12' W 018°56'.

Length 229 m; draft 9.5 m.

Type: Cargo ship. MMSI: 311051200.

Date/timePositionNaut miles runAvg speedWind from/ knotsBaromVisibWave heightAir tempDewpointWater temp
2017-Feb-20 23:04N 15°12' W 018°56'  
2017-Feb-18 11:29N 27°47' W 013°54'1314.2
2017-Feb-18 10:33N 27°58' W 013°46'1414.3
2017-Feb-18 09:33N 28°09' W 013°36'1414.1
2017-Feb-18 08:33N 28°21' W 013°27'1414.0
2017-Feb-18 07:34N 28°32' W 013°18'1414.0
2017-Feb-18 06:33N 28°44' W 013°08'1414.3
2017-Feb-18 05:33N 28°55' W 012°59'1413.9
2017-Feb-18 04:33N 29°07' W 012°50'1414.2
2017-Feb-18 03:34N 29°18' W 012°40'1514.5
2017-Feb-18 02:33N 29°30' W 012°30'1414.4
2017-Feb-18 01:33N 29°42' W 012°21'1514.7
2017-Feb-18 00:33N 29°54' W 012°11'1514.6
2017-Feb-17 23:34N 30°06' W 012°02'1414.4
2017-Feb-17 22:33N 30°17' W 011°51'1514.6
2017-Feb-17 21:33N 30°29' W 011°41'1514.5
2017-Feb-17 20:31N 30°42' W 011°31'1414.7
2017-Feb-17 19:33N 30°53' W 011°22'1514.5
2017-Feb-17 18:33N 31°05' W 011°12'1414.6
2017-Feb-17 17:33N 31°17' W 011°02'1814.0
2017-Feb-17 16:15N 31°32' W 010°50'3914.2
2017-Feb-17 13:29N 32°03' W 010°23'1314.2
2017-Feb-17 12:34N 32°14' W 010°14'1414.0
2017-Feb-17 11:32N 32°26' W 010°04'1413.9
2017-Feb-17 10:31N 32°37' W 009°54'1414.0
2017-Feb-17 09:33N 32°48' W 009°44'1414.0
2017-Feb-17 08:32N 32°60' W 009°35'1413.8
2017-Feb-17 07:33N 33°09' W 009°23'1413.7
2017-Feb-17 06:31N 33°19' W 009°11'1313.5
2017-Feb-17 05:33N 33°28' W 008°60'1313.5
2017-Feb-17 04:33N 33°37' W 008°48'1413.5
2017-Feb-17 03:33N 33°46' W 008°36'18613.8
2017-Feb-16 14:05N 35°55' W 005°52'814.3
2017-Feb-16 13:33N 35°57' W 005°43'1413.8
2017-Feb-16 12:33N 35°59' W 005°27'1312.9
2017-Feb-16 11:33N 36°03' W 005°11'1211.4
2017-Feb-16 10:32N 36°05' W 004°57'41812.3
2017-Feb-15 00:28N 37°20' E 003°36'1212.1
2017-Feb-14 23:27N 37°21' E 003°51'47111.7
2017-Feb-13 07:07N 36°24' E 013°36'712.2
2017-Feb-13 06:33N 36°21' E 013°43'1212.3
2017-Feb-13 05:33N 36°17' E 013°57'1312.6
2017-Feb-13 04:33N 36°11' E 014°11'1212.4
2017-Feb-13 03:33N 36°05' E 014°25'1312.6
2017-Feb-13 02:33N 35°59' E 014°39'9 9.1
2017-Feb-13 01:33N 35°54' E 014°48'2 0.9
2017-Feb-12 23:22N 35°53' E 014°48'0 0.0
2017-Feb-12 22:07N 35°53' E 014°48'0 0.0
2017-Feb-12 18:25N 35°53' E 014°48'0 0.0
2017-Feb-12 17:31N 35°53' E 014°48'0 0.0
2017-Feb-12 16:28N 35°53' E 014°48'0 0.0
2017-Feb-12 14:28N 35°53' E 014°48'0 0.0
2017-Feb-12 13:31N 35°53' E 014°48'0 0.0
2017-Feb-12 12:25N 35°53' E 014°48'0 0.0
2017-Feb-12 11:31N 35°53' E 014°48'0 0.0
2017-Feb-12 10:28N 35°53' E 014°48'0 0.0
2017-Feb-12 09:31N 35°53' E 014°48'0 0.0
2017-Feb-12 08:31N 35°53' E 014°48'0 0.0
2017-Feb-12 07:31N 35°53' E 014°48'0 0.3
2017-Feb-12 06:33N 35°52' E 014°49'6 5.9
2017-Feb-12 05:32N 35°52' E 014°56'  

Dump ship's entire track history